createdAt,value
2022-08-04T00:00:51.784Z,19.64
2022-08-04T00:01:51.882Z,19.55
2022-08-04T00:02:51.767Z,19.54
2022-08-04T00:03:51.781Z,19.56
2022-08-04T00:04:51.760Z,19.54
2022-08-04T00:05:51.754Z,19.49
2022-08-04T00:06:51.758Z,19.54
2022-08-04T00:07:51.726Z,19.51
2022-08-04T00:08:53.056Z,19.48
2022-08-04T00:09:51.706Z,19.48
2022-08-04T00:10:51.714Z,19.41
2022-08-04T00:11:51.699Z,19.52
2022-08-04T00:12:51.690Z,19.48
2022-08-04T00:13:59.798Z,19.40
2022-08-04T00:14:52.678Z,19.51
2022-08-04T00:15:51.669Z,19.44
2022-08-04T00:16:51.662Z,19.41
2022-08-04T00:17:51.657Z,19.45
2022-08-04T00:18:51.651Z,19.49
2022-08-04T00:19:51.630Z,19.47
2022-08-04T00:20:51.625Z,19.36
2022-08-04T00:21:51.622Z,19.31
2022-08-04T00:22:51.623Z,19.36
2022-08-04T00:24:11.831Z,19.31
2022-08-04T00:24:52.598Z,19.37
2022-08-04T00:25:51.579Z,19.27
2022-08-04T00:26:51.577Z,19.30
2022-08-04T00:27:51.566Z,19.29
2022-08-04T00:28:51.556Z,19.19
2022-08-04T00:29:53.117Z,19.27
2022-08-04T00:30:51.554Z,19.21
2022-08-04T00:32:51.661Z,19.15
2022-08-04T00:33:51.652Z,19.16
2022-08-04T00:34:51.654Z,19.19
2022-08-04T00:35:51.637Z,19.19
2022-08-04T00:36:51.630Z,19.19
2022-08-04T00:37:51.619Z,19.22
2022-08-04T00:38:52.803Z,19.19
2022-08-04T00:39:52.716Z,19.22
2022-08-04T00:40:52.690Z,19.18
2022-08-04T00:41:56.643Z,19.21
2022-08-04T00:42:58.597Z,19.14
2022-08-04T00:43:53.672Z,19.18
2022-08-04T00:44:52.660Z,19.18
2022-08-04T00:46:15.436Z,18.98
2022-08-04T00:46:53.652Z,19.09
2022-08-04T00:47:52.656Z,19.14
2022-08-04T00:48:52.647Z,19.04
2022-08-04T00:49:52.651Z,19.08
2022-08-04T00:50:52.632Z,19.09
2022-08-04T00:52:31.426Z,19.02
2022-08-04T00:52:53.611Z,18.99
2022-08-04T00:53:52.609Z,19.07
2022-08-04T00:54:52.594Z,19.07
2022-08-04T00:55:52.580Z,18.99
2022-08-04T00:56:52.577Z,19.07
2022-08-04T00:57:52.588Z,19.02
2022-08-04T00:58:52.555Z,19.00
2022-08-04T00:59:52.546Z,18.95
2022-08-04T01:00:52.554Z,19.07
2022-08-04T01:01:52.612Z,19.07
2022-08-04T01:02:52.544Z,19.02
2022-08-04T01:03:52.520Z,19.08
2022-08-04T01:04:52.521Z,19.07
2022-08-04T01:05:52.501Z,19.04
2022-08-04T01:06:56.236Z,18.99
2022-08-04T01:07:52.502Z,19.04
2022-08-04T01:08:52.475Z,18.99
2022-08-04T01:09:52.478Z,18.89
2022-08-04T01:10:52.482Z,18.90
2022-08-04T01:11:56.148Z,18.86
2022-08-04T01:12:53.462Z,18.84
2022-08-04T01:13:52.442Z,18.93
2022-08-04T01:14:52.427Z,18.89
2022-08-04T01:15:59.496Z,18.80
2022-08-04T01:16:53.419Z,18.81
2022-08-04T01:17:52.423Z,18.81
2022-08-04T01:18:52.400Z,18.78
2022-08-04T01:19:52.406Z,18.75
2022-08-04T01:20:52.387Z,18.77
2022-08-04T01:21:52.370Z,18.62
2022-08-04T01:22:52.372Z,18.73
2022-08-04T01:23:52.363Z,18.66
2022-08-04T01:24:52.363Z,18.65
2022-08-04T01:25:52.368Z,18.70
2022-08-04T01:26:57.374Z,18.65
2022-08-04T01:27:53.329Z,18.70
2022-08-04T01:28:52.339Z,18.58
2022-08-04T01:29:55.579Z,18.53
2022-08-04T01:30:52.300Z,18.66
2022-08-04T01:31:52.319Z,18.70
2022-08-04T01:32:52.303Z,18.53
2022-08-04T01:33:58.456Z,18.53
2022-08-04T01:34:53.278Z,18.50
2022-08-04T01:35:52.260Z,18.59
2022-08-04T01:36:52.270Z,18.45
2022-08-04T01:37:52.242Z,18.52
2022-08-04T01:38:52.279Z,18.47
2022-08-04T01:39:52.236Z,18.52
2022-08-04T01:40:52.229Z,18.44
2022-08-04T01:41:58.306Z,18.47
2022-08-04T01:42:53.215Z,18.43
2022-08-04T01:43:52.206Z,18.45
2022-08-04T01:44:52.209Z,18.43
2022-08-04T01:45:52.196Z,18.43
2022-08-04T01:46:52.186Z,18.40
2022-08-04T01:47:52.168Z,18.38
2022-08-04T01:48:52.166Z,18.29
2022-08-04T01:49:52.168Z,18.31
2022-08-04T01:50:52.979Z,18.34
2022-08-04T01:51:52.132Z,18.34
2022-08-04T01:52:52.145Z,18.29
2022-08-04T01:53:52.129Z,18.29
2022-08-04T01:54:52.115Z,18.28
2022-08-04T01:55:55.419Z,18.34
2022-08-04T01:56:52.100Z,18.25
2022-08-04T01:57:52.079Z,18.35
2022-08-04T01:58:52.096Z,18.31
2022-08-04T01:59:52.082Z,18.37
2022-08-04T02:00:56.238Z,18.35
2022-08-04T02:01:53.174Z,18.28
2022-08-04T02:02:52.122Z,18.23
2022-08-04T02:04:18.606Z,18.31
2022-08-04T02:04:53.035Z,18.20
2022-08-04T02:06:02.375Z,18.08
2022-08-04T02:06:53.023Z,18.13
2022-08-04T02:07:52.019Z,18.16
2022-08-04T02:08:52.001Z,18.16
2022-08-04T02:09:54.990Z,18.04
2022-08-04T02:10:51.993Z,18.13
2022-08-04T02:11:51.991Z,18.05
2022-08-04T02:12:51.971Z,18.08
2022-08-04T02:13:51.972Z,18.01
2022-08-04T02:14:51.968Z,17.94
2022-08-04T02:15:51.963Z,18.13
2022-08-04T02:16:52.663Z,18.08
2022-08-04T02:17:51.943Z,18.04
2022-08-04T02:18:51.940Z,18.05
2022-08-04T02:19:51.911Z,18.05
2022-08-04T02:20:51.925Z,18.03
2022-08-04T02:21:51.917Z,18.10
2022-08-04T02:22:51.905Z,18.10
2022-08-04T02:23:51.886Z,18.01
2022-08-04T02:24:51.869Z,18.08
2022-08-04T02:25:51.871Z,18.07
2022-08-04T02:26:51.872Z,18.05
2022-08-04T02:27:59.838Z,18.16
2022-08-04T02:28:52.852Z,18.05
2022-08-04T02:29:51.837Z,18.03
2022-08-04T02:30:51.826Z,18.10
2022-08-04T02:31:51.824Z,18.20
2022-08-04T02:32:51.857Z,18.16
2022-08-04T02:33:51.806Z,18.26
2022-08-04T02:34:51.809Z,18.29
2022-08-04T02:35:51.800Z,18.31
2022-08-04T02:36:51.786Z,18.29
2022-08-04T02:37:51.788Z,18.31
2022-08-04T02:38:51.835Z,18.31
2022-08-04T02:39:51.821Z,18.28
2022-08-04T02:40:51.755Z,18.28
2022-08-04T02:41:51.760Z,18.19
2022-08-04T02:42:51.737Z,18.31
2022-08-04T02:43:52.851Z,18.26
2022-08-04T02:44:52.729Z,18.19
2022-08-04T02:45:51.719Z,18.22
2022-08-04T02:46:51.751Z,18.18
2022-08-04T02:48:30.621Z,18.13
2022-08-04T02:48:52.699Z,18.08
2022-08-04T02:49:51.700Z,18.05
2022-08-04T02:50:52.183Z,18.18
2022-08-04T02:51:51.678Z,18.07
2022-08-04T02:52:51.658Z,18.04
2022-08-04T02:53:51.667Z,18.04
2022-08-04T02:54:51.648Z,18.00
2022-08-04T02:55:52.286Z,18.03
2022-08-04T02:56:51.660Z,17.97
2022-08-04T02:57:51.631Z,18.13
2022-08-04T02:58:51.624Z,17.94
2022-08-04T02:59:51.609Z,18.05
2022-08-04T03:00:51.642Z,18.00
2022-08-04T03:01:57.476Z,18.03
2022-08-04T03:02:52.596Z,17.94
2022-08-04T03:03:51.581Z,17.86
2022-08-04T03:04:51.574Z,17.83
2022-08-04T03:06:00.510Z,17.92
2022-08-04T03:06:52.559Z,17.86
2022-08-04T03:07:51.543Z,17.76
2022-08-04T03:08:51.545Z,17.68
2022-08-04T03:09:51.533Z,17.74
2022-08-04T03:10:51.536Z,17.78
2022-08-04T03:11:51.522Z,17.65
2022-08-04T03:12:51.518Z,17.74
2022-08-04T03:13:52.506Z,17.68
2022-08-04T03:14:51.502Z,17.59
2022-08-04T03:15:51.591Z,17.59
2022-08-04T03:16:51.477Z,17.64
2022-08-04T03:17:53.016Z,17.63
2022-08-04T03:18:51.465Z,17.64
2022-08-04T03:19:51.451Z,17.60
2022-08-04T03:20:52.111Z,17.57
2022-08-04T03:21:51.456Z,17.59
2022-08-04T03:23:12.145Z,17.64
2022-08-04T03:23:53.431Z,17.56
2022-08-04T03:24:51.415Z,17.63
2022-08-04T03:25:57.321Z,17.60
2022-08-04T03:26:52.415Z,17.65
2022-08-04T03:27:51.400Z,17.59
2022-08-04T03:28:51.440Z,17.59
2022-08-04T03:29:51.404Z,17.70
2022-08-04T03:30:51.377Z,17.63
2022-08-04T03:31:51.360Z,17.63
2022-08-04T03:32:51.369Z,17.60
2022-08-04T03:33:51.353Z,17.60
2022-08-04T03:34:51.344Z,17.57
2022-08-04T03:35:51.344Z,17.49
2022-08-04T03:36:51.320Z,17.51
2022-08-04T03:37:51.328Z,17.46
2022-08-04T03:38:56.929Z,17.48
2022-08-04T03:39:52.292Z,17.48
2022-08-04T03:40:52.291Z,17.45
2022-08-04T03:42:03.637Z,17.56
2022-08-04T03:42:52.277Z,17.57
2022-08-04T03:43:59.262Z,17.49
2022-08-04T03:44:52.264Z,17.49
2022-08-04T03:45:51.263Z,17.49
2022-08-04T03:46:51.241Z,17.56
2022-08-04T03:47:51.265Z,17.49
2022-08-04T03:48:51.231Z,17.44
2022-08-04T03:49:51.220Z,17.49
2022-08-04T03:50:51.214Z,17.49
2022-08-04T03:51:52.088Z,17.52
2022-08-04T03:52:51.210Z,17.39
2022-08-04T03:53:51.192Z,17.49
2022-08-04T03:54:51.186Z,17.45
2022-08-04T03:55:51.174Z,17.52
2022-08-04T03:56:51.162Z,17.45
2022-08-04T03:57:51.162Z,17.52
2022-08-04T03:58:51.164Z,17.52
2022-08-04T03:59:51.148Z,17.52
2022-08-04T04:00:51.201Z,17.51
2022-08-04T04:02:02.471Z,17.45
2022-08-04T04:02:52.156Z,17.48
2022-08-04T04:03:51.124Z,17.44
2022-08-04T04:04:51.137Z,17.44
2022-08-04T04:05:59.766Z,17.57
2022-08-04T04:06:53.870Z,17.51
2022-08-04T04:07:59.789Z,17.52
2022-08-04T04:08:53.066Z,17.63
2022-08-04T04:09:57.717Z,17.67
2022-08-04T04:10:52.053Z,17.70
2022-08-04T04:11:55.305Z,17.80
2022-08-04T04:12:52.036Z,17.87
2022-08-04T04:13:51.044Z,18.00
2022-08-04T04:14:51.030Z,18.03
2022-08-04T04:15:51.022Z,18.03
2022-08-04T04:16:51.010Z,18.19
2022-08-04T04:17:50.994Z,18.26
2022-08-04T04:18:51.002Z,18.31
2022-08-04T04:19:50.988Z,18.25
2022-08-04T04:20:51.979Z,18.37
2022-08-04T04:21:50.964Z,18.45
2022-08-04T04:22:50.968Z,18.41
2022-08-04T04:23:50.953Z,18.47
2022-08-04T04:24:50.959Z,18.52
2022-08-04T04:25:50.939Z,18.62
2022-08-04T04:26:50.941Z,18.66
2022-08-04T04:27:50.942Z,18.81
2022-08-04T04:28:50.912Z,18.81
2022-08-04T04:29:50.919Z,18.88
2022-08-04T04:30:50.896Z,18.83
2022-08-04T04:31:50.890Z,18.95
2022-08-04T04:32:50.890Z,19.04
2022-08-04T04:33:50.867Z,19.27
2022-08-04T04:34:50.883Z,19.40
2022-08-04T04:35:50.851Z,19.58
2022-08-04T04:36:50.847Z,19.54
2022-08-04T04:37:50.838Z,19.62
2022-08-04T04:38:50.912Z,19.66
2022-08-04T04:39:50.831Z,19.70
2022-08-04T04:40:50.825Z,19.74
2022-08-04T04:41:50.817Z,19.84
2022-08-04T04:42:50.804Z,19.92
2022-08-04T04:43:52.604Z,20.06
2022-08-04T04:44:51.195Z,20.02
2022-08-04T04:45:50.796Z,20.21
2022-08-04T04:46:50.781Z,20.28
2022-08-04T04:48:09.474Z,20.40
2022-08-04T04:48:51.760Z,20.34
2022-08-04T04:49:50.735Z,20.50
2022-08-04T04:50:51.750Z,20.51
2022-08-04T04:51:50.730Z,20.63
2022-08-04T04:52:50.724Z,20.87
2022-08-04T04:53:50.728Z,21.03
2022-08-04T04:54:51.706Z,21.20
2022-08-04T04:55:50.710Z,21.62
2022-08-04T04:56:51.677Z,21.88
2022-08-04T04:57:54.508Z,22.06
2022-08-04T04:58:50.693Z,22.33
2022-08-04T04:59:50.659Z,22.51
2022-08-04T05:00:51.670Z,22.76
2022-08-04T05:01:50.665Z,22.76
2022-08-04T05:02:50.649Z,22.84
2022-08-04T05:03:50.640Z,23.02
2022-08-04T05:04:50.631Z,23.12
2022-08-04T05:05:50.625Z,23.08
2022-08-04T05:06:54.291Z,23.23
2022-08-04T05:07:50.615Z,23.40
2022-08-04T05:08:54.207Z,23.47
2022-08-04T05:09:51.591Z,23.58
2022-08-04T05:10:50.576Z,23.61
2022-08-04T05:11:51.593Z,23.62
2022-08-04T05:14:31.518Z,23.63
2022-08-04T05:14:35.802Z,23.66
2022-08-04T05:14:51.550Z,23.76
2022-08-04T05:15:50.548Z,23.92
2022-08-04T05:16:50.540Z,24.03
2022-08-04T05:17:50.523Z,23.96
2022-08-04T05:18:50.521Z,23.96
2022-08-04T05:19:50.512Z,24.14
2022-08-04T05:20:50.628Z,24.13
2022-08-04T05:21:50.507Z,24.05
2022-08-04T05:22:50.586Z,24.05
2022-08-04T05:23:50.488Z,24.16
2022-08-04T05:24:50.481Z,24.24
2022-08-04T05:25:59.007Z,24.39
2022-08-04T05:26:51.461Z,24.39
2022-08-04T05:27:50.453Z,24.47
2022-08-04T05:28:50.450Z,24.33
2022-08-04T05:29:50.456Z,24.43
2022-08-04T05:30:50.430Z,24.55
2022-08-04T05:31:50.412Z,24.70
2022-08-04T05:32:51.409Z,24.93
2022-08-04T05:33:50.407Z,25.07
2022-08-04T05:34:50.394Z,25.04
2022-08-04T05:36:17.134Z,24.96
2022-08-04T05:36:51.385Z,24.80
2022-08-04T05:38:01.620Z,24.69
2022-08-04T05:38:51.448Z,24.69
2022-08-04T05:39:50.353Z,24.91
2022-08-04T05:40:50.361Z,25.06
2022-08-04T05:41:55.681Z,25.31
2022-08-04T05:42:51.330Z,25.36
2022-08-04T05:43:50.324Z,25.59
2022-08-04T05:44:51.303Z,25.63
2022-08-04T05:45:51.325Z,25.75
2022-08-04T05:46:53.516Z,25.55
2022-08-04T05:47:50.296Z,25.78
2022-08-04T05:48:50.289Z,25.69
2022-08-04T05:50:01.426Z,25.63
2022-08-04T05:50:51.277Z,25.75
2022-08-04T05:51:50.263Z,25.58
2022-08-04T05:52:50.260Z,25.62
2022-08-04T05:53:50.245Z,25.68
2022-08-04T05:54:50.245Z,25.62
2022-08-04T05:55:58.785Z,25.73
2022-08-04T05:56:51.231Z,25.85
2022-08-04T05:57:55.367Z,25.90
2022-08-04T05:58:52.215Z,25.96
2022-08-04T05:59:50.195Z,25.87
2022-08-04T06:00:52.217Z,25.68
2022-08-04T06:01:56.315Z,25.50
2022-08-04T06:02:51.181Z,25.44
2022-08-04T06:03:50.169Z,25.63
2022-08-04T06:04:50.185Z,25.62
2022-08-04T06:05:50.160Z,25.54
2022-08-04T06:06:50.149Z,25.66
2022-08-04T06:08:12.725Z,25.78
2022-08-04T06:08:51.135Z,25.78
2022-08-04T06:09:50.140Z,25.84
2022-08-04T06:10:50.118Z,26.06
2022-08-04T06:12:03.300Z,26.40
2022-08-04T06:12:51.099Z,26.59
2022-08-04T06:13:51.156Z,26.99
2022-08-04T06:14:51.094Z,27.12
2022-08-04T06:15:50.081Z,27.47
2022-08-04T06:16:51.503Z,27.71
2022-08-04T06:19:56.790Z,28.01
2022-08-04T06:20:00.737Z,28.42
2022-08-04T06:20:04.006Z,28.29
2022-08-04T06:20:51.038Z,28.70
2022-08-04T06:21:50.044Z,28.82
2022-08-04T06:22:50.047Z,29.07
2022-08-04T06:23:53.257Z,29.08
2022-08-04T06:24:51.013Z,29.31
2022-08-04T06:25:49.999Z,29.26
2022-08-04T06:26:49.999Z,29.31
2022-08-04T06:27:49.993Z,29.34
2022-08-04T06:28:49.991Z,29.54
2022-08-04T06:29:51.725Z,29.68
2022-08-04T06:30:49.969Z,29.82
2022-08-04T06:32:27.156Z,29.93
2022-08-04T06:32:50.953Z,30.00
2022-08-04T06:33:54.092Z,30.18
2022-08-04T06:34:49.938Z,30.23
2022-08-04T06:35:49.931Z,30.28
2022-08-04T06:36:49.941Z,30.32
2022-08-04T06:37:49.914Z,30.30
2022-08-04T06:38:58.255Z,30.32
2022-08-04T06:39:50.911Z,30.24
2022-08-04T06:40:49.887Z,30.13
2022-08-04T06:42:02.555Z,29.78
2022-08-04T06:42:50.873Z,29.44
2022-08-04T06:43:49.865Z,29.19
2022-08-04T06:44:49.870Z,29.14
2022-08-04T06:45:49.853Z,29.08
2022-08-04T06:46:49.846Z,29.19
2022-08-04T06:47:49.843Z,29.10
2022-08-04T06:48:49.841Z,28.93
2022-08-04T06:51:32.428Z,29.01
2022-08-04T06:51:32.678Z,28.86
2022-08-04T06:51:50.949Z,28.63
2022-08-04T06:52:49.856Z,28.63
2022-08-04T06:53:49.799Z,28.88
2022-08-04T06:54:50.617Z,29.17
2022-08-04T06:55:49.775Z,29.35
2022-08-04T06:56:49.767Z,29.53
2022-08-04T06:57:49.758Z,29.87
2022-08-04T06:58:49.771Z,30.03
2022-08-04T06:59:49.754Z,30.24
2022-08-04T07:00:49.737Z,30.35
2022-08-04T07:01:49.774Z,30.63
2022-08-04T07:02:49.722Z,30.90
2022-08-04T07:03:50.823Z,30.92
2022-08-04T07:04:50.658Z,31.14
2022-08-04T07:05:49.691Z,31.22
2022-08-04T07:06:49.689Z,31.43
2022-08-04T07:07:57.627Z,31.58
2022-08-04T07:08:51.660Z,31.77
2022-08-04T07:09:49.671Z,31.89
2022-08-04T07:10:49.658Z,31.77
2022-08-04T07:11:49.664Z,31.87
2022-08-04T07:12:49.654Z,31.97
2022-08-04T07:13:49.636Z,32.16
2022-08-04T07:14:49.649Z,32.16
2022-08-04T07:15:49.625Z,32.36
2022-08-04T07:16:49.629Z,32.40
2022-08-04T07:17:52.388Z,32.38
2022-08-04T07:18:49.597Z,32.48
2022-08-04T07:19:49.595Z,32.46
2022-08-04T07:20:49.593Z,32.37
2022-08-04T07:22:25.021Z,32.27
2022-08-04T07:22:50.574Z,32.33
2022-08-04T07:23:49.564Z,32.16
2022-08-04T07:24:49.586Z,32.03
2022-08-04T07:25:58.959Z,32.04
2022-08-04T07:26:50.542Z,32.08
2022-08-04T07:27:49.608Z,31.99
2022-08-04T07:28:49.543Z,31.99
2022-08-04T07:29:49.531Z,32.22
2022-08-04T07:30:50.527Z,32.22
2022-08-04T07:31:49.519Z,31.99
2022-08-04T07:32:49.501Z,31.66
2022-08-04T07:34:16.447Z,31.65
2022-08-04T07:34:50.488Z,31.74
2022-08-04T07:36:05.046Z,31.78
2022-08-04T07:36:52.878Z,31.84
2022-08-04T07:37:49.472Z,31.80
2022-08-04T07:38:51.658Z,31.87
2022-08-04T07:39:49.467Z,31.90
2022-08-04T07:40:49.449Z,32.04
2022-08-04T07:41:49.486Z,32.18
2022-08-04T07:42:49.425Z,32.45
2022-08-04T07:43:49.419Z,32.70
2022-08-04T07:44:50.255Z,32.75
2022-08-04T07:45:49.393Z,32.60
2022-08-04T07:46:51.257Z,32.67
2022-08-04T07:48:04.997Z,32.68
2022-08-04T07:48:50.390Z,32.75
2022-08-04T07:49:55.135Z,33.08
2022-08-04T07:50:50.373Z,33.22
2022-08-04T07:51:49.365Z,33.37
2022-08-04T07:53:03.605Z,33.39
2022-08-04T07:53:55.529Z,33.36
2022-08-04T07:54:49.347Z,33.27
2022-08-04T07:55:50.296Z,33.23
2022-08-04T07:56:50.181Z,33.34
2022-08-04T07:57:49.318Z,33.28
2022-08-04T07:58:49.923Z,33.36
2022-08-04T07:59:50.330Z,33.45
2022-08-04T08:00:50.296Z,33.45
2022-08-04T08:01:49.283Z,33.43
2022-08-04T08:02:49.277Z,33.34
2022-08-04T08:03:49.355Z,33.17
2022-08-04T08:04:49.282Z,33.27
2022-08-04T08:06:16.953Z,33.40
2022-08-04T08:06:50.249Z,33.50
2022-08-04T08:07:50.846Z,33.62
2022-08-04T08:08:50.236Z,33.68
2022-08-04T08:09:49.239Z,33.74
2022-08-04T08:10:49.225Z,33.94
2022-08-04T08:12:38.655Z,34.06
2022-08-04T08:12:52.135Z,34.11
2022-08-04T08:13:49.201Z,34.35
2022-08-04T08:14:49.200Z,34.14
2022-08-04T08:15:49.199Z,34.02
2022-08-04T08:16:49.175Z,34.01
2022-08-04T08:17:58.587Z,33.87
2022-08-04T08:18:50.308Z,33.57
2022-08-04T08:19:50.157Z,33.53
2022-08-04T08:20:49.146Z,33.53
2022-08-04T08:21:59.077Z,33.67
2022-08-04T08:22:51.139Z,33.68
2022-08-04T08:23:49.125Z,33.79
2022-08-04T08:24:49.115Z,33.90
2022-08-04T08:25:49.794Z,33.94
2022-08-04T08:26:49.104Z,34.01
2022-08-04T08:27:55.938Z,34.14
2022-08-04T08:28:50.086Z,34.35
2022-08-04T08:29:49.079Z,34.38
2022-08-04T08:30:52.851Z,34.42
2022-08-04T08:31:58.463Z,34.29
2022-08-04T08:32:50.050Z,33.98
2022-08-04T08:33:50.661Z,33.94
2022-08-04T08:34:49.056Z,34.03
2022-08-04T08:35:53.026Z,34.03
2022-08-04T08:36:50.029Z,34.18
2022-08-04T08:37:49.536Z,34.32
2022-08-04T08:38:49.022Z,34.58
2022-08-04T08:39:49.070Z,34.75
2022-08-04T08:40:49.002Z,34.67
2022-08-04T08:41:51.957Z,34.75
2022-08-04T08:42:48.987Z,34.89
2022-08-04T08:44:06.149Z,34.88
2022-08-04T08:44:54.820Z,34.96
2022-08-04T08:45:49.959Z,35.00
2022-08-04T08:46:50.265Z,35.11
2022-08-04T08:48:05.131Z,35.08
2022-08-04T08:48:49.940Z,35.04
2022-08-04T08:50:02.407Z,35.17
2022-08-04T08:50:49.921Z,35.26
2022-08-04T08:51:48.929Z,35.36
2022-08-04T08:52:57.595Z,35.34
2022-08-04T08:53:49.898Z,35.37
2022-08-04T08:54:48.912Z,35.49
2022-08-04T08:55:48.890Z,35.64
2022-08-04T08:56:48.886Z,35.86
2022-08-04T08:58:00.048Z,35.82
2022-08-04T08:58:49.870Z,35.89
2022-08-04T08:59:48.873Z,35.78
2022-08-04T09:00:48.884Z,35.79
2022-08-04T09:01:48.925Z,35.79
2022-08-04T09:02:48.842Z,35.26
2022-08-04T09:03:49.837Z,35.17
2022-08-04T09:04:48.831Z,35.27
2022-08-04T09:05:48.837Z,35.30
2022-08-04T09:06:48.809Z,35.27
2022-08-04T09:07:48.802Z,35.34
2022-08-04T09:08:48.796Z,35.56
2022-08-04T09:09:48.792Z,35.74
2022-08-04T09:10:48.783Z,35.79
2022-08-04T09:11:48.781Z,35.79
2022-08-04T09:12:48.766Z,35.92
2022-08-04T09:13:48.760Z,35.85
2022-08-04T09:14:48.756Z,35.60
2022-08-04T09:15:52.468Z,35.60
2022-08-04T09:16:50.742Z,35.80
2022-08-04T09:17:48.726Z,35.95
2022-08-04T09:18:48.723Z,36.01
2022-08-04T09:19:48.713Z,36.04
2022-08-04T09:20:48.721Z,36.00
2022-08-04T09:21:48.705Z,36.14
2022-08-04T09:23:03.308Z,36.14
2022-08-04T09:23:48.688Z,36.24
2022-08-04T09:24:48.682Z,36.02
2022-08-04T09:25:48.686Z,36.00
2022-08-04T09:26:48.675Z,35.85
2022-08-04T09:27:48.661Z,35.82
2022-08-04T09:28:53.964Z,35.86
2022-08-04T09:29:50.682Z,35.79
2022-08-04T09:30:48.696Z,35.70
2022-08-04T09:31:54.972Z,35.80
2022-08-04T09:32:49.630Z,35.52
2022-08-04T09:33:48.621Z,35.46
2022-08-04T09:35:03.522Z,35.39
2022-08-04T09:35:49.603Z,35.24
2022-08-04T09:36:48.719Z,35.27
2022-08-04T09:37:48.598Z,35.12
2022-08-04T09:38:52.361Z,35.00
2022-08-04T09:39:51.830Z,35.00
2022-08-04T09:40:55.316Z,34.89
2022-08-04T09:41:52.643Z,35.02
2022-08-04T09:42:48.556Z,35.04
2022-08-04T09:43:59.423Z,35.17
2022-08-04T09:44:56.219Z,35.26
2022-08-04T09:45:49.766Z,35.33
2022-08-04T09:46:48.521Z,35.34
2022-08-04T09:47:48.523Z,35.52
2022-08-04T09:48:48.499Z,35.55
2022-08-04T09:49:49.505Z,35.58
2022-08-04T09:50:50.589Z,35.41
2022-08-04T09:51:57.239Z,35.24
2022-08-04T09:52:49.479Z,35.15
2022-08-04T09:53:48.494Z,35.02
2022-08-04T09:54:48.470Z,35.05
2022-08-04T09:55:53.778Z,35.11
2022-08-04T09:56:50.241Z,35.22
2022-08-04T09:57:48.441Z,35.27
2022-08-04T09:58:48.444Z,35.33
2022-08-04T09:59:49.437Z,35.29
2022-08-04T10:00:48.421Z,35.44
2022-08-04T10:01:48.425Z,35.63
2022-08-04T10:02:49.479Z,35.73
2022-08-04T10:03:48.405Z,35.79
2022-08-04T10:04:48.394Z,35.92
2022-08-04T10:05:48.398Z,35.85
2022-08-04T10:06:48.394Z,35.92
2022-08-04T10:08:15.205Z,35.98
2022-08-04T10:08:51.207Z,35.95
2022-08-04T10:09:48.359Z,35.93
2022-08-04T10:10:48.381Z,35.68
2022-08-04T10:11:56.108Z,35.52
2022-08-04T10:12:49.339Z,35.49
2022-08-04T10:13:48.351Z,35.49
2022-08-04T10:14:48.333Z,35.52
2022-08-04T10:15:48.326Z,35.52
2022-08-04T10:16:48.315Z,35.56
2022-08-04T10:17:51.933Z,35.37
2022-08-04T10:18:48.309Z,35.46
2022-08-04T10:19:48.298Z,35.53
2022-08-04T10:20:52.913Z,35.53
2022-08-04T10:21:50.596Z,35.56
2022-08-04T10:23:10.442Z,35.64
2022-08-04T10:23:56.482Z,35.71
2022-08-04T10:24:49.262Z,35.78
2022-08-04T10:26:07.289Z,35.74
2022-08-04T10:26:50.592Z,35.78
2022-08-04T10:27:48.239Z,35.90
2022-08-04T10:28:48.231Z,35.89
2022-08-04T10:29:48.223Z,35.89
2022-08-04T10:30:48.214Z,35.93
2022-08-04T10:31:48.214Z,35.97
2022-08-04T10:32:48.203Z,36.00
2022-08-04T10:33:48.202Z,35.98
2022-08-04T10:34:48.196Z,36.00
2022-08-04T10:35:48.180Z,36.00
2022-08-04T10:36:48.183Z,36.05
2022-08-04T10:38:00.320Z,36.00
2022-08-04T10:38:49.162Z,35.86
2022-08-04T10:39:48.215Z,35.80
2022-08-04T10:40:48.147Z,35.95
2022-08-04T10:41:48.156Z,35.88
2022-08-04T10:42:48.141Z,35.90
2022-08-04T10:43:48.124Z,35.82
2022-08-04T10:44:48.122Z,35.83
2022-08-04T10:45:48.120Z,35.86
2022-08-04T10:46:49.105Z,35.82
2022-08-04T10:47:53.225Z,35.80
2022-08-04T10:48:49.096Z,35.80
2022-08-04T10:49:48.087Z,35.68
2022-08-04T10:50:48.087Z,35.79
2022-08-04T10:51:58.404Z,35.85
2022-08-04T10:52:49.837Z,35.95
2022-08-04T10:53:49.057Z,36.02
2022-08-04T10:54:48.093Z,35.90
2022-08-04T10:56:05.727Z,35.83
2022-08-04T10:56:49.048Z,36.00
2022-08-04T10:57:48.028Z,35.85
2022-08-04T10:58:49.003Z,35.83
2022-08-04T10:59:49.020Z,35.78
2022-08-04T11:00:48.007Z,35.78
2022-08-04T11:01:50.970Z,35.82
2022-08-04T11:02:49.044Z,35.90
2022-08-04T11:03:47.987Z,35.83
2022-08-04T11:04:47.978Z,35.80
2022-08-04T11:05:47.974Z,35.63
2022-08-04T11:06:47.992Z,35.63
2022-08-04T11:07:47.967Z,35.63
2022-08-04T11:08:47.955Z,35.78
2022-08-04T11:09:47.945Z,35.90
2022-08-04T11:10:47.938Z,35.97
2022-08-04T11:11:56.876Z,35.92
2022-08-04T11:12:48.929Z,35.95
2022-08-04T11:13:48.821Z,36.16
2022-08-04T11:14:47.911Z,36.14
2022-08-04T11:15:47.915Z,36.09
2022-08-04T11:16:47.918Z,36.01
2022-08-04T11:17:47.887Z,36.14
2022-08-04T11:18:47.889Z,36.21
2022-08-04T11:19:53.308Z,36.21
2022-08-04T11:20:49.873Z,36.24
2022-08-04T11:21:47.868Z,36.45
2022-08-04T11:22:47.883Z,36.40
2022-08-04T11:23:47.847Z,36.45
2022-08-04T11:24:47.842Z,36.46
2022-08-04T11:25:51.592Z,36.37
2022-08-04T11:26:48.826Z,36.36
2022-08-04T11:27:47.819Z,36.43
2022-08-04T11:28:55.798Z,36.43
2022-08-04T11:29:49.812Z,36.40
2022-08-04T11:30:47.800Z,36.62
2022-08-04T11:31:51.652Z,36.67
2022-08-04T11:32:48.783Z,36.74
2022-08-04T11:33:47.786Z,36.80
2022-08-04T11:34:52.943Z,36.76
2022-08-04T11:35:48.759Z,36.70
2022-08-04T11:36:47.766Z,36.58
2022-08-04T11:37:47.755Z,36.52
2022-08-04T11:38:52.099Z,36.47
2022-08-04T11:39:47.736Z,36.40
2022-08-04T11:40:55.729Z,36.28
2022-08-04T11:41:48.723Z,36.25
2022-08-04T11:42:47.716Z,36.20
2022-08-04T11:44:01.627Z,36.23
2022-08-04T11:44:48.699Z,36.05
2022-08-04T11:45:47.689Z,36.04
2022-08-04T11:46:47.681Z,36.08
2022-08-04T11:47:47.685Z,35.93
2022-08-04T11:48:47.668Z,35.93
2022-08-04T11:49:56.979Z,36.05
2022-08-04T11:50:53.425Z,36.01
2022-08-04T11:51:49.669Z,36.12
2022-08-04T11:52:47.652Z,36.18
2022-08-04T11:53:47.630Z,36.24
2022-08-04T11:54:52.500Z,36.33
2022-08-04T11:56:07.401Z,36.37
2022-08-04T11:56:48.622Z,36.49
2022-08-04T11:57:47.616Z,36.61
2022-08-04T11:58:50.269Z,36.68
2022-08-04T11:59:47.587Z,36.76
2022-08-04T12:00:48.265Z,36.83
2022-08-04T12:01:47.622Z,36.88
2022-08-04T12:02:47.655Z,36.88
2022-08-04T12:04:03.834Z,36.89
2022-08-04T12:04:49.556Z,36.96
2022-08-04T12:05:47.569Z,36.93
2022-08-04T12:06:56.740Z,36.92
2022-08-04T12:07:48.977Z,36.86
2022-08-04T12:08:47.524Z,36.93
2022-08-04T12:09:47.514Z,36.93
2022-08-04T12:10:47.507Z,36.81
2022-08-04T12:11:47.909Z,36.77
2022-08-04T12:12:47.525Z,36.76
2022-08-04T12:13:47.530Z,36.76
2022-08-04T12:14:47.488Z,36.72
2022-08-04T12:15:47.488Z,36.64
2022-08-04T12:16:47.465Z,36.74
2022-08-04T12:17:52.740Z,36.76
2022-08-04T12:18:48.462Z,36.74
2022-08-04T12:20:03.247Z,36.62
2022-08-04T12:20:48.434Z,36.74
2022-08-04T12:21:53.343Z,36.86
2022-08-04T12:22:48.418Z,36.88
2022-08-04T12:23:47.410Z,36.83
2022-08-04T12:24:47.422Z,36.81
2022-08-04T12:25:47.401Z,36.95
2022-08-04T12:26:47.406Z,36.76
2022-08-04T12:27:47.387Z,36.83
2022-08-04T12:29:09.085Z,36.91
2022-08-04T12:30:53.950Z,36.95
2022-08-04T12:30:58.173Z,37.08
2022-08-04T12:31:48.357Z,37.02
2022-08-04T12:32:48.213Z,37.07
2022-08-04T12:34:05.217Z,37.10
2022-08-04T12:34:48.339Z,37.15
2022-08-04T12:36:10.658Z,37.14
2022-08-04T12:36:48.324Z,37.15
2022-08-04T12:37:47.330Z,37.10
2022-08-04T12:38:47.328Z,37.02
2022-08-04T12:40:29.299Z,36.80
2022-08-04T12:40:48.899Z,36.59
2022-08-04T12:41:47.290Z,36.45
2022-08-04T12:42:55.871Z,36.51
2022-08-04T12:43:48.280Z,36.65
2022-08-04T12:44:47.263Z,36.52
2022-08-04T12:45:48.643Z,36.55
2022-08-04T12:46:47.285Z,36.61
2022-08-04T12:47:47.245Z,36.74
2022-08-04T12:48:47.239Z,36.88
2022-08-04T12:49:53.157Z,36.91
2022-08-04T12:50:48.221Z,36.92
2022-08-04T12:52:08.557Z,36.93
2022-08-04T12:53:04.280Z,36.88
2022-08-04T12:53:51.430Z,36.84